createdAt,value
2024-05-09T00:00:47.669Z,101417.54
2024-05-09T00:06:10.985Z,101419.75
2024-05-09T00:11:14.549Z,101421.95
2024-05-09T00:16:17.546Z,101417.73
2024-05-09T00:21:20.428Z,101414.91
2024-05-09T00:26:24.387Z,101410.69
2024-05-09T00:31:27.132Z,101409.06
2024-05-09T00:36:30.271Z,101407.77
2024-05-09T00:41:33.028Z,101403.85
2024-05-09T00:46:35.921Z,101411.61
2024-05-09T00:51:40.089Z,101409.02
2024-05-09T00:56:42.983Z,101411.81
2024-05-09T01:01:46.417Z,101411.26
2024-05-09T01:06:49.270Z,101412.36
2024-05-09T01:11:52.079Z,101412.33
2024-05-09T01:16:55.074Z,101407.44
2024-05-09T01:21:57.859Z,101409.27
2024-05-09T01:27:00.550Z,101412.15
2024-05-09T01:32:04.829Z,101417.94
2024-05-09T01:37:07.768Z,101416.48
2024-05-09T01:42:10.548Z,101411.92
2024-05-09T01:47:13.403Z,101416.88
2024-05-09T01:52:16.278Z,101414.00
2024-05-09T01:57:19.097Z,101417.16
2024-05-09T02:02:21.834Z,101410.69
2024-05-09T02:07:25.326Z,101407.70
2024-05-09T02:12:28.199Z,101413.23
2024-05-09T02:17:31.474Z,101420.20
2024-05-09T02:22:34.358Z,101416.08
2024-05-09T02:27:37.053Z,101410.05
2024-05-09T02:32:39.843Z,101416.61
2024-05-09T02:37:43.098Z,101417.34
2024-05-09T02:42:45.673Z,101418.91
2024-05-09T02:47:48.721Z,101421.76
2024-05-09T02:52:51.523Z,101425.00
2024-05-09T02:57:54.648Z,101424.67
2024-05-09T03:02:57.441Z,101423.63
2024-05-09T03:08:00.411Z,101423.62
2024-05-09T03:13:12.646Z,101424.86
2024-05-09T03:18:17.150Z,101427.27
2024-05-09T03:23:19.972Z,101432.45
2024-05-09T03:28:22.663Z,101439.52
2024-05-09T03:33:26.101Z,101436.23
2024-05-09T03:38:29.159Z,101435.30
2024-05-09T03:43:31.913Z,101431.02
2024-05-09T03:48:36.109Z,101427.73
2024-05-09T03:53:39.004Z,101431.48
2024-05-09T03:58:42.045Z,101436.20
2024-05-09T04:03:44.969Z,101431.61
2024-05-09T04:08:47.892Z,101427.63
2024-05-09T04:13:50.630Z,101434.41
2024-05-09T04:18:53.438Z,101432.52
2024-05-09T04:23:56.251Z,101435.30
2024-05-09T04:28:58.959Z,101428.31
2024-05-09T04:34:02.157Z,101426.58
2024-05-09T04:39:04.778Z,101432.11
2024-05-09T04:44:07.562Z,101433.10
2024-05-09T04:49:10.402Z,101430.75
2024-05-09T04:54:25.724Z,101430.63
2024-05-09T04:59:33.183Z,101432.20
2024-05-09T05:04:35.975Z,101433.58
2024-05-09T05:09:38.703Z,101436.27
2024-05-09T05:14:41.424Z,101435.98
2024-05-09T05:19:44.784Z,101435.27
2024-05-09T05:24:47.718Z,101427.79
2024-05-09T05:29:50.447Z,101424.95
2024-05-09T05:34:53.271Z,101424.98
2024-05-09T05:39:56.357Z,101422.37
2024-05-09T05:44:58.913Z,101424.55
2024-05-09T05:50:02.217Z,101423.35
2024-05-09T05:55:06.188Z,101419.16
2024-05-09T06:00:15.141Z,101423.29
2024-05-09T06:05:21.211Z,101419.83
2024-05-09T06:10:36.986Z,101421.98
2024-05-09T06:15:43.901Z,101422.95
2024-05-09T06:20:48.001Z,101423.55
2024-05-09T06:25:53.580Z,101427.70
2024-05-09T06:30:58.458Z,101423.04
2024-05-09T06:37:42.307Z,101416.63
2024-05-09T06:42:50.340Z,101403.45
2024-05-09T06:47:55.634Z,101401.29
2024-05-09T06:52:59.276Z,101401.85
2024-05-09T06:58:04.023Z,101392.39
2024-05-09T07:03:16.905Z,101389.81
2024-05-09T07:08:21.218Z,101387.97
2024-05-09T07:13:23.818Z,101387.63
2024-05-09T07:18:26.640Z,101386.95
2024-05-09T07:23:29.582Z,101385.80
2024-05-09T07:28:33.587Z,101377.30
2024-05-09T07:33:40.202Z,101377.59
2024-05-09T07:38:43.002Z,101369.29
2024-05-09T07:43:45.966Z,101369.30
2024-05-09T07:53:57.110Z,101364.29
2024-05-09T07:59:02.507Z,101369.48
2024-05-09T08:04:05.675Z,101374.25
2024-05-09T08:09:13.877Z,101374.19
2024-05-09T08:14:31.401Z,101373.88
2024-05-09T08:19:34.900Z,101371.45
2024-05-09T08:24:55.356Z,101367.44
2024-05-09T08:30:24.606Z,101366.73
2024-05-09T08:35:46.853Z,101368.65
2024-05-09T08:40:50.917Z,101362.02
2024-05-09T08:45:58.194Z,101357.13
2024-05-09T08:51:06.080Z,101347.11
2024-05-09T08:56:11.198Z,101342.52
2024-05-09T09:01:14.258Z,101340.52
2024-05-09T09:06:21.520Z,101336.92
2024-05-09T09:11:24.215Z,101337.34
2024-05-09T09:16:35.936Z,101334.30
2024-05-09T09:21:38.602Z,101333.72
2024-05-09T09:26:45.490Z,101333.47
2024-05-09T09:32:00.728Z,101329.70
2024-05-09T09:37:05.682Z,101326.10
2024-05-09T09:42:11.812Z,101328.70
2024-05-09T09:47:16.968Z,101321.52
2024-05-09T09:52:20.590Z,101315.02
2024-05-09T09:57:23.830Z,101308.35
2024-05-09T10:02:26.430Z,101306.49
2024-05-09T10:07:30.570Z,101301.08
2024-05-09T10:12:38.935Z,101302.10
2024-05-09T10:17:50.878Z,101299.16
2024-05-09T10:22:53.601Z,101291.36
2024-05-09T10:27:56.390Z,101287.63
2024-05-09T10:33:00.107Z,101288.20
2024-05-09T10:38:06.427Z,101280.83
2024-05-09T10:43:09.445Z,101283.20
2024-05-09T10:48:12.437Z,101284.49
2024-05-09T10:53:15.141Z,101284.93
2024-05-09T10:58:17.864Z,101282.77
2024-05-09T11:03:23.721Z,101277.88
2024-05-09T11:08:26.857Z,101274.91
2024-05-09T11:13:33.998Z,101267.84
2024-05-09T11:18:39.006Z,101258.36
2024-05-09T11:23:42.218Z,101254.50
2024-05-09T11:28:46.261Z,101247.00
2024-05-09T11:33:51.725Z,101243.59
2024-05-09T11:38:54.859Z,101235.83
2024-05-09T11:43:58.095Z,101232.27
2024-05-09T11:49:01.875Z,101224.20
2024-05-09T11:54:04.603Z,101212.25
2024-05-09T11:59:07.521Z,101210.14
2024-05-09T12:04:10.372Z,101204.38
2024-05-09T12:09:14.998Z,101197.10
2024-05-09T12:14:26.804Z,101191.42
2024-05-09T12:19:29.871Z,101192.10
2024-05-09T12:24:32.810Z,101187.45
2024-05-09T12:29:38.251Z,101187.55
2024-05-09T12:34:41.880Z,101180.48
2024-05-09T12:39:45.884Z,101174.55
2024-05-09T12:44:49.120Z,101173.08
2024-05-09T12:49:51.899Z,101169.35
2024-05-09T12:54:54.833Z,101160.70
2024-05-09T12:59:57.641Z,101161.41
2024-05-09T13:05:00.314Z,101157.52
2024-05-09T13:10:03.165Z,101151.70
2024-05-09T13:15:06.597Z,101148.15
2024-05-09T13:20:15.048Z,101145.94
2024-05-09T13:25:24.995Z,101142.09
2024-05-09T13:30:35.602Z,101135.23
2024-05-09T13:35:47.177Z,101126.52
2024-05-09T13:40:53.001Z,101124.78
2024-05-09T13:45:57.129Z,101124.07
2024-05-09T13:50:59.967Z,101121.29
2024-05-09T13:56:02.733Z,101116.73
2024-05-09T14:01:05.540Z,101108.84
2024-05-09T14:06:11.267Z,101101.29
2024-05-09T14:11:15.669Z,101102.75
2024-05-09T14:16:18.489Z,101097.14
2024-05-09T14:21:21.239Z,101096.05
2024-05-09T14:26:26.089Z,101088.33
2024-05-09T14:31:28.875Z,101082.42
2024-05-09T14:36:33.179Z,101076.02
2024-05-09T14:41:35.848Z,101070.73
2024-05-09T14:46:39.670Z,101062.70
2024-05-09T14:51:46.855Z,101058.74
2024-05-09T14:56:49.514Z,101053.85
2024-05-09T15:01:52.207Z,101052.89
2024-05-09T15:06:56.532Z,101043.75
2024-05-09T15:11:59.211Z,101044.27
2024-05-09T15:17:02.538Z,101034.14
2024-05-09T15:22:05.264Z,101027.26
2024-05-09T15:27:08.033Z,101024.39
2024-05-09T15:32:10.680Z,101022.98
2024-05-09T15:37:13.766Z,101018.69
2024-05-09T15:42:16.496Z,101017.97
2024-05-09T15:47:20.375Z,101014.61
2024-05-09T15:52:23.089Z,101014.35
2024-05-09T15:57:25.998Z,101003.90
2024-05-09T16:02:28.708Z,101000.72
2024-05-09T16:07:31.659Z,100996.93
2024-05-09T16:12:34.310Z,100998.51
2024-05-09T16:17:37.135Z,100992.81
2024-05-09T16:22:39.818Z,100988.55
2024-05-09T16:27:42.466Z,100980.83
2024-05-09T16:32:46.195Z,100980.20
2024-05-09T16:37:49.449Z,100977.26
2024-05-09T16:42:52.240Z,100977.07
2024-05-09T16:47:55.810Z,100975.94
2024-05-09T16:52:58.843Z,100967.70
2024-05-09T16:58:02.208Z,100966.04
2024-05-09T17:03:05.849Z,100963.06
2024-05-09T17:08:08.936Z,100957.93
2024-05-09T17:13:11.598Z,100960.08
2024-05-09T17:18:14.686Z,100953.73
2024-05-09T17:23:17.501Z,100954.91
2024-05-09T17:28:20.390Z,100946.27
2024-05-09T17:33:23.405Z,100941.64
2024-05-09T17:38:26.176Z,100933.00
2024-05-09T17:43:28.841Z,100923.42
2024-05-09T17:48:31.686Z,100921.70
2024-05-09T17:53:34.535Z,100921.58
2024-05-09T17:58:37.194Z,100919.09
2024-05-09T18:03:40.122Z,100912.41
2024-05-09T18:08:42.931Z,100915.19
2024-05-09T18:13:45.990Z,100914.56
2024-05-09T18:18:48.698Z,100916.80
2024-05-09T18:23:53.958Z,100915.88
2024-05-09T18:28:57.588Z,100918.25
2024-05-09T18:34:00.259Z,100921.23
2024-05-09T18:39:03.239Z,100920.11
2024-05-09T18:44:05.959Z,100920.77
2024-05-09T18:49:09.342Z,100921.33
2024-05-09T18:54:12.573Z,100923.20
2024-05-09T18:59:15.178Z,100922.21
2024-05-09T19:04:19.044Z,100923.33
2024-05-09T19:09:22.094Z,100921.62
2024-05-09T19:14:25.202Z,100921.80
2024-05-09T19:19:28.100Z,100921.47
2024-05-09T19:24:30.913Z,100924.30
2024-05-09T19:29:33.714Z,100928.33
2024-05-09T19:34:36.411Z,100923.66
2024-05-09T19:39:39.186Z,100923.58
2024-05-09T19:44:41.774Z,100925.50
2024-05-09T19:49:44.566Z,100923.14
2024-05-09T19:54:49.886Z,100921.88
2024-05-09T19:59:52.541Z,100918.95
2024-05-09T20:04:55.334Z,100914.95
2024-05-09T20:09:58.158Z,100916.23
2024-05-09T20:15:00.868Z,100916.48
2024-05-09T20:20:06.022Z,100917.92
2024-05-09T20:25:11.896Z,100914.58
2024-05-09T20:30:21.034Z,100912.80
2024-05-09T20:35:31.852Z,100916.31
2024-05-09T20:40:37.848Z,100912.77
2024-05-09T20:45:42.384Z,100915.41
2024-05-09T20:50:45.127Z,100916.48
2024-05-09T20:55:47.728Z,100914.15
2024-05-09T21:00:50.412Z,100911.59
2024-05-09T21:05:53.127Z,100916.17
2024-05-09T21:10:55.863Z,100916.55
2024-05-09T21:15:58.856Z,100915.45
2024-05-09T21:21:01.613Z,100911.52
2024-05-09T21:26:06.197Z,100911.67
2024-05-09T21:31:09.264Z,100908.65
2024-05-09T21:36:11.740Z,100907.84
2024-05-09T21:41:14.343Z,100911.73
2024-05-09T21:46:17.134Z,100914.14
2024-05-09T21:51:19.759Z,100909.49
2024-05-09T21:56:22.299Z,100911.73
2024-05-09T22:01:25.057Z,100922.41
2024-05-09T22:06:27.708Z,100924.16
2024-05-09T22:11:31.120Z,100911.35
2024-05-09T22:16:33.787Z,100913.39
2024-05-09T22:21:36.402Z,100909.25
2024-05-09T22:26:39.023Z,100904.09
2024-05-09T22:31:41.639Z,100898.06
2024-05-09T22:36:44.214Z,100895.96
2024-05-09T22:41:46.804Z,100891.61
2024-05-09T22:46:49.402Z,100884.97
2024-05-09T22:51:52.111Z,100881.02
2024-05-09T22:56:54.707Z,100873.68
2024-05-09T23:01:57.301Z,100874.30
2024-05-09T23:06:59.980Z,100877.00
2024-05-09T23:12:02.700Z,100876.24
2024-05-09T23:17:05.399Z,100869.76
2024-05-09T23:22:08.342Z,100871.75
2024-05-09T23:27:11.017Z,100868.99
2024-05-09T23:32:13.713Z,100864.55
2024-05-09T23:37:16.445Z,100860.88
2024-05-09T23:42:19.280Z,100860.56
2024-05-09T23:47:22.041Z,100856.10
2024-05-09T23:52:24.814Z,100852.55
2024-05-09T23:57:27.482Z,100848.60
